createdAt,value
2018-09-25T00:00:13.370Z,99164.98
2018-09-25T00:00:50.604Z,99168.00
2018-09-25T00:01:27.811Z,99167.55
2018-09-25T00:02:05.060Z,99163.73
2018-09-25T00:02:42.162Z,99171.42
2018-09-25T00:03:19.410Z,99173.98
2018-09-25T00:03:56.649Z,99173.13
2018-09-25T00:04:33.792Z,99177.81
2018-09-25T00:05:10.921Z,99172.70
2018-09-25T00:05:48.179Z,99184.64
2018-09-25T00:06:25.424Z,99178.23
2018-09-25T00:07:02.665Z,99178.24
2018-09-25T00:07:39.836Z,99185.49
2018-09-25T00:08:17.084Z,99184.24
2018-09-25T00:08:54.369Z,99177.84
2018-09-25T00:09:31.547Z,99172.30
2018-09-25T00:10:08.631Z,99183.81
2018-09-25T00:10:45.884Z,99188.51
2018-09-25T00:11:23.161Z,99185.52
2018-09-25T00:12:00.623Z,99191.50
2018-09-25T00:12:37.935Z,99190.64
2018-09-25T00:13:15.173Z,99190.21
2018-09-25T00:13:52.507Z,99194.48
2018-09-25T00:14:29.640Z,99192.34
2018-09-25T00:15:06.861Z,99200.45
2018-09-25T00:15:44.050Z,99199.14
2018-09-25T00:16:21.336Z,99196.16
2018-09-25T00:16:58.512Z,99194.88
2018-09-25T00:17:35.712Z,99195.34
2018-09-25T00:18:12.842Z,99197.47
2018-09-25T00:18:50.213Z,99197.05
2018-09-25T00:19:27.618Z,99192.34
2018-09-25T00:20:04.938Z,99192.34
2018-09-25T00:20:42.176Z,99200.45
2018-09-25T00:21:19.463Z,99203.02
2018-09-25T00:21:56.677Z,99200.87
2018-09-25T00:22:33.822Z,99201.73
2018-09-25T00:23:11.012Z,99200.03
2018-09-25T00:23:48.221Z,99208.98
2018-09-25T00:24:25.572Z,99200.88
2018-09-25T00:25:02.741Z,99202.59
2018-09-25T00:25:39.864Z,99202.16
2018-09-25T00:26:17.104Z,99207.30
2018-09-25T00:26:54.295Z,99200.05
2018-09-25T00:27:31.574Z,99205.16
2018-09-25T00:28:08.753Z,99208.19
2018-09-25T00:28:45.929Z,99206.48
2018-09-25T00:29:23.248Z,99206.05
2018-09-25T00:30:00.400Z,99201.78
2018-09-25T00:30:37.663Z,99204.77
2018-09-25T00:31:14.932Z,99211.19
2018-09-25T00:31:52.208Z,99207.35
2018-09-25T00:32:29.350Z,99208.63
2018-09-25T00:33:06.576Z,99210.33
2018-09-25T00:33:43.899Z,99201.41
2018-09-25T00:34:21.102Z,99209.08
2018-09-25T00:34:58.296Z,99211.21
2018-09-25T00:35:35.528Z,99202.68
2018-09-25T00:36:12.688Z,99209.95
2018-09-25T00:36:49.918Z,99203.98
2018-09-25T00:37:27.063Z,99208.25
2018-09-25T00:38:04.242Z,99205.69
2018-09-25T00:38:41.420Z,99205.26
2018-09-25T00:39:18.649Z,99203.13
2018-09-25T00:39:55.855Z,99207.81
2018-09-25T00:40:32.983Z,99210.38
2018-09-25T00:41:10.172Z,99207.39
2018-09-25T00:41:47.368Z,99214.67
2018-09-25T00:42:24.517Z,99214.67
2018-09-25T00:43:01.778Z,99204.44
2018-09-25T00:43:38.918Z,99209.55
2018-09-25T00:44:16.180Z,99215.09
2018-09-25T00:44:53.312Z,99209.13
2018-09-25T00:45:30.396Z,99213.39
2018-09-25T00:46:07.614Z,99210.00
2018-09-25T00:46:44.900Z,99212.11
2018-09-25T00:47:22.304Z,99210.83
2018-09-25T00:47:59.586Z,99211.66
2018-09-25T00:48:36.844Z,99209.11
2018-09-25T00:49:14.092Z,99212.52
2018-09-25T00:49:51.344Z,99207.40
2018-09-25T00:50:28.579Z,99214.22
2018-09-25T00:51:05.736Z,99211.66
2018-09-25T00:51:42.901Z,99205.26
2018-09-25T00:52:20.111Z,99213.39
2018-09-25T00:52:57.286Z,99208.70
2018-09-25T00:53:34.438Z,99214.66
2018-09-25T00:54:11.625Z,99210.00
2018-09-25T00:54:48.815Z,99203.60
2018-09-25T00:55:26.134Z,99205.30
2018-09-25T00:56:03.324Z,99206.59
2018-09-25T00:56:40.520Z,99207.44
2018-09-25T00:57:17.779Z,99210.88
2018-09-25T00:57:54.971Z,99210.42
2018-09-25T00:58:32.212Z,99212.16
2018-09-25T00:59:09.479Z,99217.28
2018-09-25T00:59:46.689Z,99216.84
2018-09-25T01:00:23.956Z,99216.42
2018-09-25T01:01:01.104Z,99213.44
2018-09-25T01:01:38.274Z,99217.27
2018-09-25T01:02:15.506Z,99221.97
2018-09-25T01:02:52.743Z,99210.45
2018-09-25T01:03:29.911Z,99216.42
2018-09-25T01:04:07.124Z,99215.14
2018-09-25T01:04:44.272Z,99221.11
2018-09-25T01:05:21.449Z,99219.00
2018-09-25T01:05:58.668Z,99213.45
2018-09-25T01:06:35.844Z,99219.00
2018-09-25T01:07:12.978Z,99220.27
2018-09-25T01:07:50.164Z,99227.95
2018-09-25T01:08:27.392Z,99219.42
2018-09-25T01:09:04.727Z,99226.67
2018-09-25T01:09:41.893Z,99222.41
2018-09-25T01:10:19.119Z,99224.97
2018-09-25T01:10:56.379Z,99219.00
2018-09-25T01:11:33.525Z,99228.80
2018-09-25T01:12:10.772Z,99222.44
2018-09-25T01:12:47.923Z,99222.86
2018-09-25T01:13:25.272Z,99230.54
2018-09-25T01:14:02.530Z,99218.99
2018-09-25T01:14:39.788Z,99218.58
2018-09-25T01:15:16.964Z,99222.84
2018-09-25T01:15:54.188Z,99224.54
2018-09-25T01:16:31.328Z,99227.09
2018-09-25T01:17:08.585Z,99228.38
2018-09-25T01:17:45.871Z,99224.12
2018-09-25T01:18:23.060Z,99228.38
2018-09-25T01:19:00.232Z,99229.23
2018-09-25T01:19:37.476Z,99227.95
2018-09-25T01:20:14.543Z,99226.70
2018-09-25T01:20:51.738Z,99230.11
2018-09-25T01:21:28.912Z,99229.67
2018-09-25T01:22:06.044Z,99231.38
2018-09-25T01:22:43.269Z,99230.13
2018-09-25T01:23:20.486Z,99225.02
2018-09-25T01:23:57.719Z,99235.25
2018-09-25T01:24:34.888Z,99235.25
2018-09-25T01:25:12.084Z,99242.07
2018-09-25T01:25:49.275Z,99241.22
2018-09-25T01:26:26.503Z,99240.79
2018-09-25T01:27:03.816Z,99240.37
2018-09-25T01:27:41.119Z,99232.25
2018-09-25T01:28:18.344Z,99236.91
2018-09-25T01:28:55.586Z,99237.34
2018-09-25T01:29:32.836Z,99237.73
2018-09-25T01:30:10.092Z,99241.16
2018-09-25T01:30:47.224Z,99235.64
2018-09-25T01:31:24.359Z,99234.36
2018-09-25T01:32:01.555Z,99237.77
2018-09-25T01:32:38.798Z,99237.77
2018-09-25T01:33:16.027Z,99237.34
2018-09-25T01:33:53.274Z,99239.05
2018-09-25T01:34:30.403Z,99243.31
2018-09-25T01:35:07.574Z,99244.16
2018-09-25T01:35:44.729Z,99242.45
2018-09-25T01:36:21.857Z,99234.77
2018-09-25T01:36:59.030Z,99247.14
2018-09-25T01:37:36.248Z,99243.73
2018-09-25T01:38:13.400Z,99236.91
2018-09-25T01:38:50.559Z,99232.65
2018-09-25T01:39:27.808Z,99239.91
2018-09-25T01:40:05.036Z,99243.72
2018-09-25T01:40:42.240Z,99239.85
2018-09-25T01:41:19.474Z,99240.71
2018-09-25T01:41:56.693Z,99249.67
2018-09-25T01:42:33.875Z,99240.27
2018-09-25T01:43:10.994Z,99247.89
2018-09-25T01:43:48.253Z,99244.91
2018-09-25T01:44:25.436Z,99240.66
2018-09-25T01:45:02.742Z,99247.05
2018-09-25T01:45:39.956Z,99249.16
2018-09-25T01:46:17.114Z,99244.46
2018-09-25T01:46:54.277Z,99243.19
2018-09-25T01:47:31.524Z,99247.02
2018-09-25T01:48:08.811Z,99243.62
2018-09-25T01:48:46.045Z,99247.03
2018-09-25T01:49:23.206Z,99244.87
2018-09-25T01:50:00.416Z,99247.00
2018-09-25T01:50:37.686Z,99250.02
2018-09-25T01:51:14.862Z,99244.48
2018-09-25T01:51:52.108Z,99246.17
2018-09-25T01:52:29.336Z,99241.91
2018-09-25T01:53:06.567Z,99247.88
2018-09-25T01:53:43.744Z,99241.50
2018-09-25T01:54:20.938Z,99245.77
2018-09-25T01:54:58.208Z,99242.36
2018-09-25T01:55:35.572Z,99249.19
2018-09-25T01:56:12.839Z,99244.48
2018-09-25T01:56:50.063Z,99243.66
2018-09-25T01:57:27.200Z,99247.50
2018-09-25T01:58:04.416Z,99253.45
2018-09-25T01:58:41.630Z,99244.96
2018-09-25T01:59:18.864Z,99250.92
2018-09-25T01:59:56.108Z,99247.11
2018-09-25T02:00:33.269Z,99247.95
2018-09-25T02:01:10.418Z,99249.69
2018-09-25T02:01:47.576Z,99249.72
2018-09-25T02:02:24.820Z,99253.13
2018-09-25T02:03:02.049Z,99251.84
2018-09-25T02:03:39.286Z,99254.40
2018-09-25T02:04:16.446Z,99249.70
2018-09-25T02:04:53.710Z,99254.39
2018-09-25T02:05:30.935Z,99254.81
2018-09-25T02:06:08.107Z,99252.29
2018-09-25T02:06:45.306Z,99261.23
2018-09-25T02:07:22.488Z,99256.15
2018-09-25T02:07:59.644Z,99261.66
2018-09-25T02:08:36.999Z,99263.39
2018-09-25T02:09:14.124Z,99259.98
2018-09-25T02:09:51.400Z,99262.11
2018-09-25T02:10:28.644Z,99261.25
2018-09-25T02:11:05.880Z,99267.25
2018-09-25T02:11:43.145Z,99266.83
2018-09-25T02:12:20.386Z,99268.09
2018-09-25T02:12:57.576Z,99268.09
2018-09-25T02:13:34.788Z,99266.39
2018-09-25T02:14:12.041Z,99267.70
2018-09-25T02:14:49.292Z,99267.70
2018-09-25T02:15:26.640Z,99274.52
2018-09-25T02:16:04.003Z,99265.56
2018-09-25T02:16:41.107Z,99268.12
2018-09-25T02:17:18.346Z,99268.09
2018-09-25T02:17:55.525Z,99264.26
2018-09-25T02:18:32.733Z,99268.95
2018-09-25T02:19:10.032Z,99275.77
2018-09-25T02:19:47.242Z,99275.77
2018-09-25T02:20:24.500Z,99270.68
2018-09-25T02:21:01.648Z,99267.70
2018-09-25T02:21:38.805Z,99275.80
2018-09-25T02:22:16.158Z,99271.11
2018-09-25T02:22:53.387Z,99277.05
2018-09-25T02:23:30.618Z,99272.81
2018-09-25T02:24:07.822Z,99276.66
2018-09-25T02:24:45.006Z,99277.08
2018-09-25T02:25:22.198Z,99277.93
2018-09-25T02:25:59.476Z,99279.20
2018-09-25T02:26:36.644Z,99274.94
2018-09-25T02:27:13.946Z,99274.94
2018-09-25T02:27:51.194Z,99279.66
2018-09-25T02:28:28.346Z,99275.81
2018-09-25T02:29:05.605Z,99276.66
2018-09-25T02:29:42.806Z,99278.82
2018-09-25T02:30:19.973Z,99285.22
2018-09-25T02:30:57.158Z,99283.05
2018-09-25T02:31:34.320Z,99284.78
2018-09-25T02:32:11.538Z,99286.06
2018-09-25T02:32:48.700Z,99284.36
2018-09-25T02:33:25.951Z,99280.09
2018-09-25T02:34:03.159Z,99276.68
2018-09-25T02:34:40.313Z,99285.64
2018-09-25T02:35:17.470Z,99284.36
2018-09-25T02:35:54.618Z,99288.20
2018-09-25T02:36:31.868Z,99286.91
2018-09-25T02:37:09.127Z,99278.80
2018-09-25T02:37:46.248Z,99280.51
2018-09-25T02:38:23.387Z,99286.09
2018-09-25T02:39:00.560Z,99284.77
2018-09-25T02:39:37.782Z,99285.62
2018-09-25T02:40:15.058Z,99289.45
2018-09-25T02:40:52.308Z,99289.47
2018-09-25T02:41:29.530Z,99285.10
2018-09-25T02:42:06.688Z,99283.36
2018-09-25T02:42:43.861Z,99288.48
2018-09-25T02:43:21.089Z,99282.52
2018-09-25T02:43:58.336Z,99287.67
2018-09-25T02:44:35.513Z,99282.13
2018-09-25T02:45:12.856Z,99288.58
2018-09-25T02:45:50.104Z,99294.56
2018-09-25T02:46:27.338Z,99297.13
2018-09-25T02:47:04.476Z,99297.59
2018-09-25T02:47:41.592Z,99297.15
2018-09-25T02:48:18.734Z,99295.88
2018-09-25T02:48:55.924Z,99299.31
2018-09-25T02:49:33.079Z,99301.86
2018-09-25T02:50:10.216Z,99297.58
2018-09-25T02:50:47.478Z,99287.78
2018-09-25T02:51:24.712Z,99298.44
2018-09-25T02:52:01.910Z,99302.26
2018-09-25T02:52:39.142Z,99309.95
2018-09-25T02:53:16.371Z,99301.81
2018-09-25T02:53:53.728Z,99295.77
2018-09-25T02:54:30.952Z,99293.58
2018-09-25T02:55:08.134Z,99297.81
2018-09-25T02:55:45.352Z,99298.19
2018-09-25T02:56:22.520Z,99299.03
2018-09-25T02:56:59.725Z,99301.59
2018-09-25T02:57:36.897Z,99300.31
2018-09-25T02:58:14.050Z,99295.67
2018-09-25T02:58:51.254Z,99299.58
2018-09-25T02:59:28.454Z,99294.91
2018-09-25T03:00:05.751Z,99295.83
2018-09-25T03:00:42.888Z,99300.97
2018-09-25T03:01:20.090Z,99304.38
2018-09-25T03:01:57.355Z,99304.41
2018-09-25T03:02:34.489Z,99302.28
2018-09-25T03:03:11.643Z,99307.84
2018-09-25T03:03:48.862Z,99306.58
2018-09-25T03:04:26.126Z,99312.56
2018-09-25T03:05:03.476Z,99307.46
2018-09-25T03:05:40.769Z,99302.83
2018-09-25T03:06:18.006Z,99307.95
2018-09-25T03:06:55.117Z,99307.09
2018-09-25T03:07:32.279Z,99308.40
2018-09-25T03:08:09.526Z,99313.94
2018-09-25T03:08:46.691Z,99314.36
2018-09-25T03:09:23.908Z,99310.95
2018-09-25T03:10:01.074Z,99304.98
2018-09-25T03:10:38.365Z,99310.13
2018-09-25T03:11:15.490Z,99308.84
2018-09-25T03:11:52.707Z,99305.85
2018-09-25T03:12:29.964Z,99313.52
2018-09-25T03:13:07.100Z,99313.51
2018-09-25T03:13:44.246Z,99310.98
2018-09-25T03:14:21.430Z,99307.99
2018-09-25T03:14:58.682Z,99310.97
2018-09-25T03:15:36.017Z,99313.95
2018-09-25T03:16:13.144Z,99314.81
2018-09-25T03:16:50.303Z,99323.34
2018-09-25T03:17:27.388Z,99316.52
2018-09-25T03:18:04.599Z,99318.22
2018-09-25T03:18:41.826Z,99310.58
2018-09-25T03:19:18.981Z,99314.83
2018-09-25T03:19:56.346Z,99316.53
2018-09-25T03:20:33.520Z,99313.11
2018-09-25T03:21:10.642Z,99312.69
2018-09-25T03:21:47.773Z,99317.41
2018-09-25T03:22:25.021Z,99318.68
2018-09-25T03:23:02.160Z,99319.10
2018-09-25T03:23:39.334Z,99318.67
2018-09-25T03:24:16.692Z,99316.54
2018-09-25T03:24:54.026Z,99320.38
2018-09-25T03:25:31.305Z,99319.94
2018-09-25T03:26:08.523Z,99322.52
2018-09-25T03:26:45.788Z,99310.58
2018-09-25T03:27:22.951Z,99316.97
2018-09-25T03:28:00.060Z,99312.71
2018-09-25T03:28:37.331Z,99322.93
2018-09-25T03:29:14.563Z,99322.53
2018-09-25T03:29:51.704Z,99320.83
2018-09-25T03:30:28.899Z,99316.55
2018-09-25T03:31:06.110Z,99320.80
2018-09-25T03:31:43.201Z,99321.23
2018-09-25T03:32:20.430Z,99317.40
2018-09-25T03:32:57.630Z,99320.41
2018-09-25T03:33:34.745Z,99318.67
2018-09-25T03:34:12.016Z,99314.44
2018-09-25T03:34:49.154Z,99322.95
2018-09-25T03:35:26.270Z,99324.66
2018-09-25T03:36:03.494Z,99315.28
2018-09-25T03:36:40.643Z,99324.22
2018-09-25T03:37:17.891Z,99316.58
2018-09-25T03:37:55.076Z,99321.69
2018-09-25T03:38:32.264Z,99320.84
2018-09-25T03:39:09.421Z,99323.39
2018-09-25T03:39:46.534Z,99319.98
2018-09-25T03:40:23.721Z,99318.27
2018-09-25T03:41:00.940Z,99319.56
2018-09-25T03:41:38.099Z,99322.97
2018-09-25T03:42:15.354Z,99322.97
2018-09-25T03:42:52.499Z,99319.98
2018-09-25T03:43:29.799Z,99320.41
2018-09-25T03:44:06.988Z,99317.85
2018-09-25T03:44:44.160Z,99322.54
2018-09-25T03:45:21.418Z,99320.41
2018-09-25T03:45:58.659Z,99325.55
2018-09-25T03:46:35.904Z,99321.27
2018-09-25T03:47:13.139Z,99325.53
2018-09-25T03:47:50.311Z,99320.42
2018-09-25T03:48:27.560Z,99325.95
2018-09-25T03:49:04.803Z,99322.11
2018-09-25T03:49:42.057Z,99317.86
2018-09-25T03:50:19.254Z,99323.39
2018-09-25T03:50:56.364Z,99326.40
2018-09-25T03:51:33.560Z,99330.21
2018-09-25T03:52:10.775Z,99329.80
2018-09-25T03:52:47.888Z,99329.80
2018-09-25T03:53:25.094Z,99326.39
2018-09-25T03:54:02.366Z,99329.80
2018-09-25T03:54:39.647Z,99325.54
2018-09-25T03:55:16.895Z,99333.62
2018-09-25T03:55:54.024Z,99328.52
2018-09-25T03:56:31.201Z,99329.36
2018-09-25T03:57:08.549Z,99327.69
2018-09-25T03:57:45.786Z,99335.78
2018-09-25T03:58:22.920Z,99332.80
2018-09-25T03:59:00.068Z,99331.52
2018-09-25T03:59:37.315Z,99330.66
2018-09-25T04:00:14.739Z,99335.77
2018-09-25T04:00:51.920Z,99342.15
2018-09-25T04:01:29.222Z,99333.20
2018-09-25T04:02:06.441Z,99335.75
2018-09-25T04:02:43.691Z,99346.43
2018-09-25T04:03:20.928Z,99334.92
2018-09-25T04:03:58.107Z,99336.19
2018-09-25T04:04:35.224Z,99340.03
2018-09-25T04:05:12.582Z,99340.02
2018-09-25T04:05:49.722Z,99335.33
2018-09-25T04:06:26.987Z,99345.13
2018-09-25T04:07:04.216Z,99335.77
2018-09-25T04:07:41.393Z,99341.75
2018-09-25T04:08:18.621Z,99348.13
2018-09-25T04:08:55.765Z,99343.45
2018-09-25T04:09:32.912Z,99348.13
2018-09-25T04:10:10.171Z,99349.41
2018-09-25T04:10:47.395Z,99348.09
2018-09-25T04:11:24.643Z,99342.16
2018-09-25T04:12:01.926Z,99346.37
2018-09-25T04:12:39.330Z,99350.64
2018-09-25T04:13:16.662Z,99352.34
2018-09-25T04:13:53.858Z,99346.83
2018-09-25T04:14:31.062Z,99354.06
2018-09-25T04:15:08.235Z,99351.09
2018-09-25T04:15:45.402Z,99347.67
2018-09-25T04:16:22.616Z,99350.66
2018-09-25T04:16:59.940Z,99349.38
2018-09-25T04:17:37.091Z,99356.60
2018-09-25T04:18:14.236Z,99354.05
2018-09-25T04:18:51.446Z,99357.48
2018-09-25T04:19:28.676Z,99354.48
2018-09-25T04:20:05.956Z,99354.50
2018-09-25T04:20:43.304Z,99355.78
2018-09-25T04:21:20.612Z,99351.51
2018-09-25T04:21:57.900Z,99358.33
2018-09-25T04:22:35.121Z,99356.19
2018-09-25T04:23:12.361Z,99360.02
2018-09-25T04:23:49.531Z,99362.58
2018-09-25T04:24:26.670Z,99359.58
2018-09-25T04:25:03.927Z,99360.02
2018-09-25T04:25:41.027Z,99360.44
2018-09-25T04:26:18.123Z,99356.63
2018-09-25T04:26:55.438Z,99357.48
2018-09-25T04:27:32.726Z,99360.45
2018-09-25T04:28:09.852Z,99361.30
2018-09-25T04:28:47.000Z,99362.16
2018-09-25T04:29:24.162Z,99357.48
2018-09-25T04:30:01.304Z,99356.20
2018-09-25T04:30:38.521Z,99360.87
2018-09-25T04:31:15.701Z,99361.30
2018-09-25T04:31:52.944Z,99362.99
2018-09-25T04:32:30.093Z,99362.59
2018-09-25T04:33:07.355Z,99359.62
2018-09-25T04:33:44.502Z,99366.00
2018-09-25T04:34:21.750Z,99369.83
2018-09-25T04:34:59.122Z,99368.55
2018-09-25T04:35:36.298Z,99375.36
2018-09-25T04:36:13.408Z,99369.82
2018-09-25T04:36:50.618Z,99370.66
2018-09-25T04:37:27.805Z,99368.53
2018-09-25T04:38:05.035Z,99373.25
2018-09-25T04:38:42.272Z,99373.25
2018-09-25T04:39:19.425Z,99372.36
2018-09-25T04:39:56.591Z,99377.50
2018-09-25T04:40:33.807Z,99372.38
2018-09-25T04:41:10.971Z,99382.61
2018-09-25T04:41:48.220Z,99379.20
2018-09-25T04:42:25.507Z,99380.05
2018-09-25T04:43:02.840Z,99387.70
2018-09-25T04:43:40.165Z,99376.64
2018-09-25T04:44:17.498Z,99387.27
2018-09-25T04:44:54.743Z,99377.91
2018-09-25T04:45:31.966Z,99382.61
2018-09-25T04:46:09.057Z,99380.91
2018-09-25T04:46:46.214Z,99382.61
2018-09-25T04:47:23.385Z,99381.76
2018-09-25T04:48:00.511Z,99399.63
2018-09-25T04:48:37.707Z,99396.66
2018-09-25T04:49:14.882Z,99394.52
2018-09-25T04:49:52.079Z,99397.50
2018-09-25T04:50:29.278Z,99396.24
2018-09-25T04:51:06.431Z,99387.30
2018-09-25T04:51:43.585Z,99396.23
2018-09-25T04:52:20.774Z,99400.06
2018-09-25T04:52:57.971Z,99398.36
2018-09-25T04:53:35.270Z,99396.22
2018-09-25T04:54:12.504Z,99389.41
2018-09-25T04:54:49.728Z,99400.91
2018-09-25T04:55:26.838Z,99397.92
2018-09-25T04:56:04.025Z,99400.05
2018-09-25T04:56:41.293Z,99403.03
2018-09-25T04:57:18.577Z,99397.94
2018-09-25T04:57:55.783Z,99404.30
2018-09-25T04:58:33.037Z,99403.89
2018-09-25T04:59:10.179Z,99399.63
2018-09-25T04:59:47.350Z,99406.03
2018-09-25T05:00:24.548Z,99413.69
2018-09-25T05:01:01.726Z,99406.87
2018-09-25T05:01:38.951Z,99411.55
2018-09-25T05:02:16.056Z,99410.70
2018-09-25T05:02:53.284Z,99407.30
2018-09-25T05:03:30.384Z,99409.84
2018-09-25T05:04:07.569Z,99410.27
2018-09-25T05:04:44.790Z,99411.14
2018-09-25T05:05:22.039Z,99415.81
2018-09-25T05:05:59.210Z,99411.53
2018-09-25T05:06:36.377Z,99419.20
2018-09-25T05:07:13.635Z,99416.23
2018-09-25T05:07:50.854Z,99415.80
2018-09-25T05:08:28.011Z,99409.00
2018-09-25T05:09:05.251Z,99421.77
2018-09-25T05:09:42.395Z,99422.63
2018-09-25T05:10:19.618Z,99423.89
2018-09-25T05:10:56.880Z,99429.00
2018-09-25T05:11:34.128Z,99429.43
2018-09-25T05:12:11.292Z,99420.93
2018-09-25T05:12:48.568Z,99431.97
2018-09-25T05:13:25.748Z,99427.71
2018-09-25T05:14:02.928Z,99426.89
2018-09-25T05:14:40.089Z,99426.03
2018-09-25T05:15:17.330Z,99426.03
2018-09-25T05:15:54.564Z,99424.73
2018-09-25T05:16:31.755Z,99428.16
2018-09-25T05:17:08.887Z,99430.72
2018-09-25T05:17:46.179Z,99430.28
2018-09-25T05:18:23.375Z,99429.85
2018-09-25T05:19:00.504Z,99432.84
2018-09-25T05:19:37.656Z,99434.11
2018-09-25T05:20:14.891Z,99438.79
2018-09-25T05:20:52.049Z,99439.64
2018-09-25T05:21:29.301Z,99441.77
2018-09-25T05:22:06.563Z,99442.19
2018-09-25T05:22:43.825Z,99439.20
2018-09-25T05:23:21.163Z,99432.39
2018-09-25T05:23:58.392Z,99434.11
2018-09-25T05:24:35.590Z,99440.91
2018-09-25T05:25:12.776Z,99430.30
2018-09-25T05:25:50.141Z,99446.04
2018-09-25T05:26:27.537Z,99436.23
2018-09-25T05:27:05.012Z,99444.33
2018-09-25T05:27:42.370Z,99447.72
2018-09-25T05:28:19.635Z,99439.22
2018-09-25T05:28:56.896Z,99449.00
2018-09-25T05:29:34.072Z,99445.59
2018-09-25T05:30:11.200Z,99450.70
2018-09-25T05:30:48.440Z,99450.27
2018-09-25T05:31:25.786Z,99446.86
2018-09-25T05:32:02.954Z,99452.42
2018-09-25T05:32:40.140Z,99450.29
2018-09-25T05:33:17.341Z,99446.03
2018-09-25T05:33:54.468Z,99448.58
2018-09-25T05:34:31.740Z,99456.66
2018-09-25T05:35:08.989Z,99454.54
2018-09-25T05:35:46.146Z,99456.23
2018-09-25T05:36:23.294Z,99449.00
2018-09-25T05:37:00.542Z,99459.65
2018-09-25T05:37:37.842Z,99458.36
2018-09-25T05:38:15.033Z,99460.94
2018-09-25T05:38:52.169Z,99457.11
2018-09-25T05:39:29.320Z,99453.25
2018-09-25T05:40:06.535Z,99453.70
2018-09-25T05:40:43.737Z,99455.38
2018-09-25T05:41:20.882Z,99457.52
2018-09-25T05:41:58.122Z,99456.25
2018-09-25T05:42:35.355Z,99454.97
2018-09-25T05:43:12.552Z,99459.65
2018-09-25T05:43:49.758Z,99460.92
2018-09-25T05:44:27.010Z,99457.94
2018-09-25T05:45:04.174Z,99463.04
2018-09-25T05:45:41.404Z,99465.60
2018-09-25T05:46:18.670Z,99469.00
2018-09-25T05:46:55.763Z,99469.44
2018-09-25T05:47:32.967Z,99470.70
2018-09-25T05:48:10.233Z,99463.03
2018-09-25T05:48:47.526Z,99466.44
2018-09-25T05:49:24.942Z,99474.52
2018-09-25T05:50:02.400Z,99473.27
2018-09-25T05:50:39.739Z,99467.73
2018-09-25T05:51:17.105Z,99475.82
2018-09-25T05:51:54.514Z,99473.27
2018-09-25T05:52:32.011Z,99468.58
2018-09-25T05:53:09.464Z,99469.86
2018-09-25T05:53:47.230Z,99475.81
2018-09-25T05:54:24.556Z,99474.53
2018-09-25T05:55:01.939Z,99475.37
2018-09-25T05:55:39.181Z,99477.08
2018-09-25T05:56:16.414Z,99477.92
2018-09-25T05:56:53.611Z,99477.08
2018-09-25T05:57:30.797Z,99478.77
2018-09-25T05:58:07.944Z,99480.06
2018-09-25T05:58:45.193Z,99477.95
2018-09-25T05:59:22.378Z,99481.78
2018-09-25T05:59:59.551Z,99483.45
2018-09-25T06:00:36.713Z,99485.61
2018-09-25T06:01:13.870Z,99490.27
2018-09-25T06:01:50.960Z,99490.27
2018-09-25T06:02:28.160Z,99492.84
2018-09-25T06:03:05.404Z,99491.13
2018-09-25T06:03:42.759Z,99487.72
2018-09-25T06:04:20.156Z,99488.16
2018-09-25T06:04:57.386Z,99496.25
2018-09-25T06:05:34.725Z,99495.39
2018-09-25T06:06:12.096Z,99494.11
2018-09-25T06:06:49.456Z,99491.99
2018-09-25T06:07:26.620Z,99492.81
2018-09-25T06:08:03.803Z,99494.52
2018-09-25T06:08:41.002Z,99497.95
2018-09-25T06:09:18.185Z,99494.53
2018-09-25T06:09:55.413Z,99504.33
2018-09-25T06:10:32.704Z,99497.09
2018-09-25T06:11:09.860Z,99478.77
2018-09-25T06:11:47.066Z,99500.50
2018-09-25T06:12:24.253Z,99502.62
2018-09-25T06:13:01.409Z,99498.78
2018-09-25T06:13:38.652Z,99495.80
2018-09-25T06:14:15.900Z,99500.48
2018-09-25T06:14:53.106Z,99500.48
2018-09-25T06:15:30.369Z,99503.03
2018-09-25T06:16:07.526Z,99502.64
2018-09-25T06:16:44.688Z,99497.95
2018-09-25T06:17:21.950Z,99506.86
2018-09-25T06:17:59.175Z,99499.64
2018-09-25T06:18:36.459Z,99505.59
2018-09-25T06:19:13.918Z,99497.08
2018-09-25T06:19:51.137Z,99506.86
2018-09-25T06:20:28.391Z,99500.07
2018-09-25T06:21:05.654Z,99506.02
2018-09-25T06:21:42.883Z,99509.86
2018-09-25T06:22:20.063Z,99506.02
2018-09-25T06:22:57.329Z,99503.45
2018-09-25T06:23:34.635Z,99511.95
2018-09-25T06:24:11.769Z,99512.38
2018-09-25T06:24:48.955Z,99507.73
2018-09-25T06:25:26.212Z,99514.53
2018-09-25T06:26:03.440Z,99514.96
2018-09-25T06:26:40.698Z,99515.38
2018-09-25T06:27:17.971Z,99508.14
2018-09-25T06:27:55.318Z,99511.12
2018-09-25T06:28:32.523Z,99511.54
2018-09-25T06:29:09.704Z,99505.58
2018-09-25T06:29:46.915Z,99508.55
2018-09-25T06:30:24.180Z,99506.42
2018-09-25T06:31:01.363Z,99516.63
2018-09-25T06:31:38.560Z,99511.95
2018-09-25T06:32:15.740Z,99512.38
2018-09-25T06:32:52.872Z,99517.93
2018-09-25T06:33:30.106Z,99514.53
2018-09-25T06:34:07.400Z,99522.61
2018-09-25T06:34:44.735Z,99518.36
2018-09-25T06:35:21.965Z,99518.36
2018-09-25T06:35:59.217Z,99524.72
2018-09-25T06:36:36.437Z,99527.28
2018-09-25T06:37:13.629Z,99528.13
2018-09-25T06:37:50.956Z,99532.80
2018-09-25T06:38:28.171Z,99525.57
2018-09-25T06:39:05.400Z,99526.43
2018-09-25T06:39:42.600Z,99511.08
2018-09-25T06:40:19.740Z,99526.43
2018-09-25T06:40:56.979Z,99535.80
2018-09-25T06:41:34.255Z,99531.95
2018-09-25T06:42:11.482Z,99532.38
2018-09-25T06:42:48.751Z,99531.95
2018-09-25T06:43:25.950Z,99538.34
2018-09-25T06:44:03.192Z,99539.19
2018-09-25T06:44:40.343Z,99542.62
2018-09-25T06:45:17.578Z,99548.12
2018-09-25T06:45:54.780Z,99540.89
2018-09-25T06:46:31.877Z,99543.03
2018-09-25T06:47:09.159Z,99540.05
2018-09-25T06:47:46.329Z,99543.44
2018-09-25T06:48:23.600Z,99551.13
2018-09-25T06:49:00.792Z,99547.71
2018-09-25T06:49:38.000Z,99552.82
2018-09-25T06:50:15.196Z,99551.55
2018-09-25T06:50:52.316Z,99552.82
2018-09-25T06:51:29.522Z,99554.52
2018-09-25T06:52:06.663Z,99550.27
2018-09-25T06:52:43.798Z,99548.13
2018-09-25T06:53:20.971Z,99554.11
2018-09-25T06:53:58.123Z,99552.83
2018-09-25T06:54:35.283Z,99553.23
2018-09-25T06:55:12.734Z,99551.13
2018-09-25T06:55:49.990Z,99556.22
2018-09-25T06:56:27.224Z,99551.97
2018-09-25T06:57:04.420Z,99557.94
2018-09-25T06:57:41.610Z,99555.81
2018-09-25T06:58:18.744Z,99559.63
2018-09-25T06:58:55.903Z,99556.66
2018-09-25T06:59:33.148Z,99557.09
2018-09-25T07:00:10.379Z,99554.96
2018-09-25T07:00:47.456Z,99561.34
2018-09-25T07:01:24.699Z,99555.38
2018-09-25T07:02:01.825Z,99559.65
2018-09-25T07:02:39.104Z,99562.62
2018-09-25T07:03:16.342Z,99563.04
2018-09-25T07:03:53.462Z,99558.36
2018-09-25T07:04:30.711Z,99557.50
2018-09-25T07:05:07.976Z,99558.34
2018-09-25T07:05:45.125Z,99559.20
2018-09-25T07:06:22.268Z,99566.02
2018-09-25T07:06:59.506Z,99568.16
2018-09-25T07:07:36.655Z,99566.87
2018-09-25T07:08:13.830Z,99566.45
2018-09-25T07:08:51.061Z,99567.73
2018-09-25T07:09:28.307Z,99568.13
2018-09-25T07:10:05.804Z,99566.86
2018-09-25T07:10:42.965Z,99542.57
2018-09-25T07:11:20.168Z,99560.91
2018-09-25T07:11:57.334Z,99565.19
2018-09-25T07:12:34.643Z,99563.04
2018-09-25T07:13:11.746Z,99564.73
2018-09-25T07:13:48.958Z,99563.89
2018-09-25T07:14:26.049Z,99569.84
2018-09-25T07:15:03.248Z,99563.45
2018-09-25T07:15:40.367Z,99568.14
2018-09-25T07:16:17.578Z,99564.74
2018-09-25T07:16:54.915Z,99574.13